Data for 06/01/2010

Time Sea-Level Adjusted Pressure Absolute Pressure Temperature Relative Humidity Dew Point   
(mb) (inHg) (mb) (inHg) (C) (F) (%) (C) (F)
00:05 1016 30 845 24.95 8.8 47.8 95 8.1 46.5
00:10 1016 30 845 24.95 8.7 47.7 95 8 46.4
00:15 1016 30 845 24.95 8.6 47.6 95 7.9 46.2
00:20 1016 30 845 24.95 8.6 47.4 95 7.8 46.1
00:25 1016 30 845 24.95 8.6 47.5 95 7.9 46.2
00:30 1016 30 845 24.95 8.6 47.5 95 7.9 46.2
00:35 1016 30 845 24.95 8.6 47.4 95 7.9 46.1
00:40 1016 30 845 24.95 8.7 47.6 95 8 46.3
00:45 1016 30 845 24.95 8.6 47.5 95 7.9 46.2
00:50 1016 30 845 24.95 8.7 47.6 95 8 46.4
00:55 1016 30 845 24.95 8.6 47.5 95 7.9 46.1
01:00 1016 30 845 24.95 8.6 47.5 95 7.9 46.1
01:05 1016 30 845 24.95 8.7 47.6 95 7.9 46.2
01:10 1016 30 845 24.95 8.7 47.7 95 7.9 46.3
01:15 1016 30 845 24.95 8.7 47.6 95 7.9 46.2
01:20 1016 30 845 24.95 8.7 47.7 95 8 46.3
01:25 1016 30 845 24.95 8.7 47.6 95 7.9 46.2
01:30 1016 30 845 24.95 8.6 47.4 95 7.8 46.1
01:35 1016 30 845 24.95 8.6 47.4 95 7.9 46.1
01:40 1016 30 845 24.95 8.6 47.4 95 7.9 46.2
01:45 1016 30 845 24.95 8.6 47.4 95 7.9 46.2
01:50 1016 30 845 24.95 8.5 47.4 95 7.8 46.1
01:55 1016 30 845 24.95 8.6 47.4 95 7.9 46.2
02:00 1016 30 845 24.95 8.6 47.5 96 7.9 46.3
02:05 1016 30 845 24.95 8.5 47.4 95 7.9 46.1
02:10 1016 30 845 24.95 8.5 47.2 95 7.8 46
02:15 1016 30 845 24.95 8.5 47.3 96 7.8 46.1
02:20 1016 30 845 24.95 8.5 47.2 96 7.8 46
02:25 1016 30 845 24.95 8.5 47.3 96 7.8 46.1
02:30 1016 30 845 24.95 8.5 47.3 96 7.8 46.1
02:35 1016 30 845 24.95 8.5 47.4 95 7.8 46.1
02:40 1016 30 845 24.95 8.5 47.3 95 7.8 46.1
02:45 1016 30 845 24.95 8.5 47.4 95 7.8 46.1
02:50 1016 30 845 24.95 8.5 47.3 95 7.8 46
02:55 1016 30 845 24.95 8.5 47.2 95 7.7 45.9
03:00 1016 30 845 24.95 8.5 47.3 95 7.8 46
03:05 1016 30 845 24.95 8.5 47.2 95 7.7 45.8
03:10 1016 30 845 24.95 8.3 47 95 7.6 45.6
03:15 1016 30 845 24.95 8.4 47.1 95 7.7 45.8
03:20 1016 30 845 24.95 8.5 47.2 95 7.7 45.8
03:25 1016 30 845 24.95 8.5 47.2 94 7.6 45.7
03:30 1016 30 845 24.95 8.4 47.2 94 7.5 45.4
03:35 1016 30 845 24.95 8.4 47.2 93 7.4 45.3
03:40 1016 30 845 24.95 8.3 46.9 93 7.2 45
03:45 1016 30 845 24.95 8.1 46.6 93 7.1 44.8
03:50 1015 29.97 845 24.95 8.1 46.5 94 7.1 44.7
03:55 1015 29.97 845 24.95 8 46.3 94 7 44.6
04:00 1015 29.97 845 24.95 7.9 46.3 93 6.9 44.5
04:05 1015 29.97 845 24.95 7.9 46.2 94 6.9 44.5
04:10 1015 29.97 845 24.95 7.8 46.1 93 6.8 44.3
04:15 1015 29.97 845 24.95 7.8 46 93 6.8 44.2
04:20 1015 29.97 845 24.95 7.8 46 93 6.8 44.2
04:25 1015 29.97 845 24.95 7.6 45.7 94 6.6 43.9
04:30 1015 29.97 845 24.95 7.5 45.4 94 6.6 43.8
04:35 1015 29.97 845 24.95 7.4 45.4 94 6.5 43.8
04:40 1015 29.97 845 24.95 7.5 45.4 94 6.5 43.7
04:45 1015 29.97 845 24.95 7.4 45.4 94 6.5 43.7
04:50 1015 29.97 845 24.95 7.5 45.5 93 6.5 43.7
04:55 1016 30 845 24.95 7.7 45.8 92 6.5 43.6
05:00 1015 29.97 845 24.95 7.7 45.8 92 6.4 43.6
05:05 1016 30 845 24.95 7.8 46 91 6.3 43.4
05:10 1016 30 845 24.95 7.9 46.2 90 6.3 43.3
05:15 1016 30 845 24.95 7.9 46.2 90 6.3 43.3
05:20 1015 29.97 845 24.95 7.9 46.2 90 6.3 43.3
05:25 1015 29.97 845 24.95 7.8 46 90 6.2 43.1
05:30 1016 30 845 24.95 7.8 46 90 6.3 43.3
05:35 1016 30 845 24.95 7.6 45.7 92 6.3 43.4
05:40 1016 30 845 24.95 7.6 45.6 92 6.3 43.3
05:45 1016 30 845 24.95 7.7 45.8 90 6.2 43.1
05:50 1016 30 845 24.95 7.7 45.9 91 6.3 43.3
05:55 1016 30 845 24.95 7.6 45.7 90 6.1 43.1
06:00 1016 30 845 24.95 7.5 45.6 91 6.2 43.2
06:05 1016 30 845 24.95 7.5 45.5 92 6.2 43.2
06:10 1016 30 845 24.95 7.5 45.6 92 6.3 43.3
06:15 1016 30 845 24.95 7.8 46.1 90 6.3 43.3
06:20 1016 30 845 24.95 8.1 46.7 90 6.5 43.8
06:25 1016 30 845 24.95 8.5 47.2 88 6.6 43.9
06:30 1016 30 845 24.95 8.9 48.1 87 6.9 44.4
06:35 1016 30 845 24.95 9.1 48.4 87 7 44.6
06:40 1016 30 845 24.95 9 48.2 87 6.9 44.4
06:45 1016 30 845 24.95 8.9 48 85 6.5 43.6
06:50 1016 30 845 24.95 8.8 47.9 85 6.5 43.7
06:55 1016 30 845 24.95 8.7 47.7 86 6.6 43.8
07:00 1016 30 845 24.95 8.9 47.9 87 6.8 44.2
07:05 1016 30 845 24.95 9 48.2 87 6.9 44.4
07:10 1016 30 845 24.95 9 48.2 85 6.7 44
07:15 1016 30 845 24.95 8.8 47.9 87 6.7 44.1
07:20 1016 30 845 24.95 8.7 47.7 87 6.6 43.9
07:25 1016 30 846 24.98 8.5 47.4 87 6.6 43.8
07:30 1016 30 846 24.98 8.6 47.6 87 6.7 44
07:35 1016 30 846 24.98 8.6 47.5 88 6.7 44
07:40 1016 30 846 24.98 8.7 47.6 88 6.7 44.1
07:45 1016 30 846 24.98 8.7 47.7 87 6.7 44
07:50 1016 30 846 24.98 8.6 47.4 86 6.4 43.5
07:55 1016 30 846 24.98 8.5 47.2 86 6.3 43.3
08:00 1016 30 846 24.98 8.5 47.4 87 6.5 43.8
08:05 1016 30 846 24.98 8.6 47.5 88 6.7 44.1
08:10 1016 30 846 24.98 8.7 47.6 88 6.8 44.2
08:15 1016 30 846 24.98 8.8 47.8 88 6.9 44.5
08:20 1016 30 846 24.98 9 48.2 88 7.1 44.7
08:25 1016 30 846 24.98 9 48.2 89 7.3 45.1
08:30 1016 30 846 24.98 9.1 48.4 88 7.3 45.1
08:35 1016 30 846 24.98 9.1 48.4 89 7.4 45.3
08:40 1016 30 846 24.98 9.2 48.5 89 7.5 45.4
08:45 1016 30 846 24.98 9.3 48.7 89 7.5 45.6
08:50 1016 30 846 24.98 9.4 48.9 89 7.8 46
08:55 1016 30 846 24.98 9.5 49.1 89 7.7 45.9
09:00 1016 30 846 24.98 9.7 49.4 88 7.7 45.9
09:05 1016 30 846 24.98 10 50 86 7.8 46
09:10 1016 30 846 24.98 10.3 50.5 84 7.7 45.9
09:15 1016 30 846 24.98 10.4 50.7 83 7.7 45.8
09:20 1016 30 846 24.98 9.9 49.9 86 7.6 45.8
09:25 1016 30 846 24.98 10.5 50.8 80 7.2 44.9
09:30 1016 30 846 24.98 10.7 51.2 80 7.3 45.2
09:35 1017 30.03 846 24.98 10.1 50.2 81 7.1 44.7
09:40 1017 30.03 846 24.98 10.2 50.3 82 7.2 44.9
09:45 1016 30 846 24.98 10.8 51.4 77 6.9 44.5
09:50 1016 30 846 24.98 10.9 51.5 78 7.1 44.8
09:55 1016 30 846 24.98 11.2 52.1 77 7.2 45
10:00 1017 30.03 846 24.98 11.3 52.4 77 7.4 45.4
10:05 1016 30 846 24.98 11.8 53.3 75 7.6 45.7
10:10 1016 30 846 24.98 12.3 54.1 72 7.4 45.3
10:15 1016 30 846 24.98 12.2 53.9 72 7.3 45.1
10:20 1016 30 846 24.98 12.5 54.5 71 7.4 45.3
10:25 1016 30 845 24.95 12.7 54.9 70 7.5 45.5
10:30 1016 30 845 24.95 13.4 56.1 68 7.7 45.8
10:35 1016 30 845 24.95 13.6 56.4 66 7.3 45.1
10:40 1016 30 845 24.95 13.6 56.5 65 7.1 44.8
10:45 1016 30 845 24.95 13.6 56.5 66 7.3 45.2
10:50 1016 30 845 24.95 13.2 55.7 65 6.8 44.2
10:55 1016 30 845 24.95 12.6 54.8 68 6.9 44.5
11:00 1016 30 845 24.95 13.2 55.8 65 6.8 44.3
11:05 1016 30 845 24.95 13.8 56.8 64 7.1 44.7
11:10 1016 30 845 24.95 13.5 56.4 63 6.6 44
11:15 1016 30 845 24.95 13.8 56.9 63 7 44.7
11:20 1016 30 845 24.95 12.9 55.2 64 6.3 43.4
11:25 1016 30 845 24.95 13 55.4 61 5.8 42.4
11:30 1016 30 845 24.95 14.1 57.4 57 5.9 42.5
11:35 1016 30 845 24.95 13.9 57 61 6.5 43.7
11:40 1016 30 845 24.95 14.4 57.9 57 6 42.8
11:45 1016 30 845 24.95 14.3 57.7 57 5.8 42.5
11:50 1016 30 845 24.95 14.5 58.1 58 6.5 43.7
11:55 1016 30 845 24.95 13.9 57 57 5.5 41.9
12:00 1016 30 845 24.95 14.7 58.5 54 5.6 42.2
12:05 1016 30 845 24.95 15.3 59.6 54 6.2 43.2
12:10 1016 30 845 24.95 15.6 60.1 52 5.9 42.7
12:15 1016 30 845 24.95 16 60.7 55 6.9 44.4
12:20 1016 30 845 24.95 14.9 58.8 54 5.8 42.4
12:25 1016 30 845 24.95 14.9 58.9 54 5.8 42.4
12:30 1016 30 845 24.95 14.8 58.6 53 5.4 41.7
12:35 1016 30 845 24.95 15.8 60.5 47 4.8 40.6
12:40 1015 29.97 845 24.95 16.4 61.5 49 5.7 42.3
12:45 1015 29.97 845 24.95 16.8 62.2 47 5.6 42.1
12:50 1015 29.97 844 24.92 17 62.6 48 6.1 42.9
12:55 1015 29.97 844 24.92 16.2 61.2 52 6.5 43.8
13:00 1015 29.97 844 24.92 15 59 53 5.5 42
13:05 1015 29.97 844 24.92 14.9 58.8 53 5.6 42.1
13:10 1015 29.97 844 24.92 15.4 59.8 50 5.1 41.2
13:15 1015 29.97 844 24.92 16.5 61.7 48 5.5 41.9
13:20 1015 29.97 844 24.92 16 60.8 50 5.8 42.4
13:25 1015 29.97 844 24.92 16.1 61 49 5.4 41.8
13:30 1015 29.97 844 24.92 16.1 61 48 5.1 41.2
13:35 1015 29.97 844 24.92 16.6 62 46 5 41
13:40 1015 29.97 844 24.92 17.4 63.3 43 4.8 40.6
13:45 1015 29.97 844 24.92 17.5 63.4 43 4.8 40.7
13:50 1015 29.97 844 24.92 16.9 62.3 45 4.9 40.8
13:55 1015 29.97 844 24.92 16.7 62.1 44 4.6 40.2
14:00 1015 29.97 844 24.92 16.5 61.7 44 4.3 39.7
14:05 1015 29.97 844 24.92 15.7 60.2 45 3.9 39
14:10 1014 29.94 844 24.92 16.4 61.4 39 2.6 36.7
14:15 1014 29.94 844 24.92 16.3 61.4 45 4.3 39.8
14:20 1014 29.94 844 24.92 16.6 61.9 45 4.8 40.7
14:25 1014 29.94 844 24.92 16.6 61.8 45 4.6 40.4
14:30 1014 29.94 844 24.92 16.2 61.1 45 4.3 39.8
14:35 1014 29.94 844 24.92 16.2 61.2 45 4.5 40
14:40 1014 29.94 843 24.89 16.1 61 46 4.6 40.2
14:45 1014 29.94 843 24.89 15.9 60.6 48 5.1 41.2
14:50 1014 29.94 843 24.89 16 60.8 48 5 40.9
14:55 1014 29.94 843 24.89 16.1 61 44 4 39.2
15:00 1014 29.94 843 24.89 17.3 63.2 43 4.6 40.3
15:05 1014 29.94 843 24.89 17.6 63.7 37 3.1 37.5
15:10 1014 29.94 843 24.89 18.4 65.1 34 2.5 36.5
15:15 1014 29.94 843 24.89 18.4 65.2 34 2.6 36.6
15:20 1014 29.94 843 24.89 17.2 62.9 39 3.3 37.9
15:25 1014 29.94 843 24.89 16.7 62.1 41 3.4 38.2
15:30 1014 29.94 843 24.89 16.7 62.1 41 3.6 38.6
15:35 1014 29.94 843 24.89 17.2 62.9 34 1.4 34.6
15:40 1014 29.94 843 24.89 17.6 63.7 38 3.3 37.9
15:45 1014 29.94 843 24.89 17.8 64 39 3.7 38.6
15:50 1014 29.94 843 24.89 16.9 62.4 43 4.3 39.7
15:55 1014 29.94 843 24.89 16.2 61.2 44 4.1 39.4
16:00 1014 29.94 843 24.89 16.2 61.2 45 4.4 39.9
16:05 1014 29.94 843 24.89 15.8 60.5 47 4.6 40.4
16:10 1014 29.94 843 24.89 15.6 60.1 47 4.3 39.8
16:15 1014 29.94 843 24.89 15.5 59.9 47 4.2 39.6
16:20 1014 29.94 843 24.89 15.1 59.3 53 5.6 42.1
16:25 1014 29.94 843 24.89 14.3 57.7 58 6.3 43.4
16:30 1014 29.94 843 24.89 14 57.1 63 7.1 44.8
16:35 1014 29.94 843 24.89 13.3 55.9 62 6.3 43.3
16:40 1014 29.94 843 24.89 13.1 55.6 67 7.2 44.9
16:45 1014 29.94 843 24.89 12.8 55 71 7.6 45.7
16:50 1014 29.94 844 24.92 12.5 54.6 70 7.3 45.1
16:55 1014 29.94 844 24.92 12.3 54.2 69 6.8 44.2
17:00 1014 29.94 844 24.92 12.3 54.1 70 7 44.6
17:05 1014 29.94 844 24.92 12.2 53.9 71 7.1 44.8
17:10 1014 29.94 844 24.92 12 53.6 71 7.1 44.7
17:15 1015 29.97 844 24.92 11.9 53.4 71 6.9 44.3
17:20 1015 29.97 844 24.92 11.7 53 73 7 44.6
17:25 1015 29.97 844 24.92 11.6 52.9 71 6.6 43.9
17:30 1015 29.97 844 24.92 11.7 53.1 72 6.8 44.2
17:35 1015 29.97 844 24.92 11.7 53 75 7.5 45.5
17:40 1015 29.97 844 24.92 11.7 53 76 7.6 45.7
17:45 1015 29.97 845 24.95 11.5 52.6 80 8.1 46.6
17:50 1016 30 845 24.95 11.3 52.3 80 8.1 46.5
17:55 1015 29.97 845 24.95 10.9 51.7 79 7.4 45.3
18:00 1015 29.97 845 24.95 11 51.8 80 7.8 46
18:05 1015 29.97 845 24.95 11.5 52.6 82 8.5 47.3
18:10 1015 29.97 845 24.95 11.8 53.3 80 8.5 47.4
18:15 1015 29.97 844 24.92 11.7 53 77 7.9 46.2
18:20 1015 29.97 844 24.92 11.2 52.2 80 8 46.4
18:25 1015 29.97 844 24.92 11.1 51.9 79 7.6 45.6
18:30 1015 29.97 844 24.92 11 51.8 79 7.5 45.6
18:35 1015 29.97 844 24.92 10.9 51.7 81 7.8 46.1
18:40 1015 29.97 844 24.92 10.9 51.5 75 6.7 44.1
18:45 1015 29.97 844 24.92 10.9 51.7 78 7.2 45
18:50 1015 29.97 844 24.92 11 51.7 79 7.5 45.4
18:55 1015 29.97 844 24.92 10.8 51.5 81 7.7 45.9
19:00 1015 29.97 844 24.92 10.8 51.4 81 7.7 45.9
19:05 1015 29.97 844 24.92 10.7 51.2 81 7.5 45.5
19:10 1015 29.97 844 24.92 10.6 51.1 80 7.3 45.1
19:15 1015 29.97 844 24.92 10.6 51.1 80 7.3 45.2
19:20 1015 29.97 844 24.92 10.6 51.1 83 8 46.3
19:25 1015 29.97 844 24.92 10.7 51.2 82 7.7 45.8
19:30 1015 29.97 845 24.95 10.7 51.3 79 7.2 45
19:35 1016 30 845 24.95 10.5 51 77 6.7 44.1
19:40 1016 30 845 24.95 10.1 50.3 81 7 44.6
19:45 1016 30 845 24.95 9.6 49.3 84 7.1 44.8
19:50 1016 30 845 24.95 9.4 48.8 87 7.3 45.2
19:55 1016 30 845 24.95 9.3 48.7 87 7.3 45.1
20:00 1016 30 845 24.95 9.4 49 87 7.4 45.3
20:05 1016 30 845 24.95 9.5 49.1 86 7.4 45.3
20:10 1016 30 845 24.95 9.6 49.3 82 6.7 44
20:15 1016 30 845 24.95 9.8 49.6 82 6.9 44.4
20:20 1016 30 845 24.95 9.8 49.7 81 6.6 44
20:25 1016 30 845 24.95 9.9 49.7 80 6.6 43.8
20:30 1016 30 845 24.95 9.8 49.6 79 6.4 43.5
20:35 1016 30 845 24.95 9.7 49.4 81 6.5 43.7
20:40 1016 30 845 24.95 9.7 49.5 80 6.4 43.5
20:45 1015 29.97 845 24.95 9.6 49.2 82 6.6 43.9
20:50 1015 29.97 845 24.95 9.3 48.8 87 7.3 45.1
20:55 1015 29.97 844 24.92 9.1 48.3 87 7 44.7
21:00 1015 29.97 844 24.92 9.1 48.3 79 5.7 42.2
21:05 1015 29.97 844 24.92 9.2 48.5 80 5.9 42.7
21:10 1015 29.97 845 24.95 9.3 48.8 79 5.9 42.5
21:15 1015 29.97 845 24.95 9.4 48.9 81 6.3 43.4
21:20 1015 29.97 845 24.95 9.3 48.7 84 6.7 44
21:25 1016 30 845 24.95 9.1 48.4 82 6.2 43.1
21:30 1015 29.97 845 24.95 9 48.2 82 6.2 43.1
21:35 1015 29.97 845 24.95 8.9 48.1 84 6.4 43.4
21:40 1015 29.97 845 24.95 8.8 47.8 83 6.1 43
21:45 1016 30 845 24.95 8.7 47.7 82 5.8 42.4
21:50 1015 29.97 845 24.95 8.7 47.7 82 5.8 42.5
21:55 1015 29.97 845 24.95 8.7 47.6 84 6 42.9
22:00 1015 29.97 845 24.95 8.6 47.5 86 6.4 43.5
22:05 1015 29.97 845 24.95 8.4 47.2 87 6.3 43.4
22:10 1015 29.97 845 24.95 8.3 47 87 6.2 43.2
22:15 1015 29.97 845 24.95 8.2 46.8 86 6 42.8
22:20 1016 30 845 24.95 8.1 46.6 85 5.7 42.2
22:25 1016 30 845 24.95 8 46.4 85 5.7 42.2
22:30 1016 30 845 24.95 8 46.4 85 5.7 42.3
22:35 1016 30 845 24.95 8.1 46.7 84 5.6 42
22:40 1016 30 845 24.95 8.2 46.7 82 5.3 41.5
22:45 1016 30 845 24.95 8.2 46.7 83 5.4 41.8
22:50 1016 30 845 24.95 7.9 46.2 85 5.6 42.1
22:55 1016 30 845 24.95 7.6 45.8 85 5.3 41.6
23:00 1016 30 845 24.95 7.6 45.6 86 5.5 41.8
23:05 1016 30 845 24.95 7.5 45.5 86 5.4 41.7
23:10 1016 30 845 24.95 7.4 45.3 87 5.5 41.8
23:15 1016 30 845 24.95 7.5 45.5 85 5.2 41.4
23:20 1016 30 845 24.95 7.6 45.7 86 5.4 41.7
23:25 1016 30 845 24.95 7.6 45.7 86 5.4 41.7
23:30 1016 30 845 24.95 7.5 45.6 87 5.5 41.9
23:35 1015 29.97 845 24.95 7.4 45.4 88 5.6 42
23:40 1015 29.97 845 24.95 7.3 45.1 87 5.3 41.6
23:45 1015 29.97 845 24.95 7.5 45.4 86 5.3 41.6
23:50 1015 29.97 845 24.95 7.5 45.5 86 5.3 41.6
23:55 1016 30 845 24.95 7.6 45.7 83 5 41
24:00 1016 30 845 24.95 7.7 45.9 84 5.2 41.3